Time;durP1;ratioP1;P1;durP2;ratioP2;P2;SDS_P1;SDS_P2;PMS_P1;PMS_P2;Temp;Humidity;BMP_temperature;BMP_pressure;BME280_temperature;BME280_humidity;BME280_pressure;Samples;Min_cycle;Max_cycle;Signal;HPM_P1;HPM_P2
2022/10/04 00:02:14;;;;;;;21.10;7.90;;;;;;;-150.27;100.00;61272.81;5195442;28;20034;-73
2022/10/04 00:04:53;;;;;;;11.73;6.37;;;;;;;-150.27;100.00;61272.81;5193623;28;20703;-73
2022/10/04 00:07:28;;;;;;;12.57;5.70;;;;;;;-150.27;100.00;61272.81;5197278;28;20081;-73
2022/10/04 00:10:18;;;;;;;10.83;5.57;;;;;;;-150.27;100.00;61272.81;5211833;28;20052;-73
2022/10/04 00:12:54;;;;;;;8.73;5.57;;;;;;;-150.27;100.00;61272.81;5204882;28;20046;-73
2022/10/04 00:15:29;;;;;;;17.13;6.93;;;;;;;-150.27;100.00;61272.81;5192766;28;20362;-73
2022/10/04 00:18:10;;;;;;;18.60;6.63;;;;;;;-150.27;100.00;61272.81;5208391;28;20127;-73
2022/10/04 00:20:49;;;;;;;11.70;6.00;;;;;;;-150.27;100.00;61272.81;5206959;28;20553;-73
2022/10/04 00:23:23;;;;;;;10.83;6.33;;;;;;;-150.27;100.00;61272.81;5214425;28;20070;-74
2022/10/04 00:25:57;;;;;;;16.20;7.03;;;;;;;-150.27;100.00;61272.81;5213036;28;20092;-73
2022/10/04 00:28:42;;;;;;;12.55;5.60;;;;;;;-150.27;100.00;61272.81;5214607;28;20041;-72
2022/10/04 00:31:22;;;;;;;12.45;5.85;;;;;;;-150.27;100.00;61272.81;5204941;28;20031;-73
2022/10/04 00:34:03;;;;;;;15.73;6.30;;;;;;;-150.27;100.00;61272.81;5206430;28;20042;-72
2022/10/04 00:36:43;;;;;;;16.13;7.73;;;;;;;-150.27;100.00;61272.81;5212890;28;20668;-73
2022/10/04 00:39:23;;;;;;;11.90;7.23;;;;;;;-150.27;100.00;61272.81;5206107;28;20121;-72
2022/10/04 00:42:02;;;;;;;14.57;7.07;;;;;;;-150.27;100.00;61272.81;5193862;28;20072;-73
2022/10/04 00:44:57;;;;;;;12.77;6.50;;;;;;;-150.27;100.00;61272.81;5193611;28;20037;-73
2022/10/04 00:47:40;;;;;;;15.53;7.23;;;;;;;-150.27;100.00;61272.81;5193504;28;20066;-74
2022/10/04 00:50:19;;;;;;;12.47;7.23;;;;;;;-150.27;100.00;61272.81;5208353;28;20484;-74
2022/10/04 00:52:54;;;;;;;12.83;6.30;;;;;;;-150.27;100.00;61272.81;5212947;28;20026;-74
2022/10/04 00:55:43;;;;;;;14.60;7.70;;;;;;;-150.27;100.00;61272.81;5211560;28;20034;-74
2022/10/04 00:58:43;;;;;;;13.90;6.40;;;;;;;-150.27;100.00;61272.81;5211824;28;20037;-74
2022/10/04 01:01:22;;;;;;;12.80;6.30;;;;;;;-150.27;100.00;61272.81;5201762;28;20030;-74
2022/10/04 01:03:56;;;;;;;11.27;6.23;;;;;;;-150.27;100.00;61272.81;5192528;28;20026;-74
2022/10/04 01:06:28;;;;;;;9.75;6.57;;;;;;;-150.27;100.00;61272.81;5204377;28;20048;-73
2022/10/04 01:09:08;;;;;;;11.47;6.83;;;;;;;-150.27;100.00;61272.81;5214356;28;20538;-73
2022/10/04 01:11:51;;;;;;;16.50;8.93;;;;;;;-150.27;100.00;61272.81;5246315;22;20328;-73
2022/10/04 01:14:38;;;;;;;13.87;6.93;;;;;;;-150.27;100.00;61272.81;5179144;28;20031;-72
2022/10/04 01:17:10;;;;;;;11.13;6.97;;;;;;;-150.27;100.00;61272.81;5173924;28;20027;-73
2022/10/04 01:19:50;;;;;;;13.17;7.03;;;;;;;-150.27;100.00;61272.81;5171252;28;20030;-73
2022/10/04 01:22:39;;;;;;;15.07;6.87;;;;;;;-150.27;100.00;61272.81;5170682;28;20062;-74
2022/10/04 01:26:02;;;;;;;13.50;7.60;;;;;;;-150.27;100.00;61272.81;5171818;28;20031;-74
2022/10/04 01:28:34;;;;;;;14.90;7.50;;;;;;;-150.27;100.00;61272.81;5140780;28;20038;-73
2022/10/04 01:31:05;;;;;;;13.47;7.73;;;;;;;-150.27;100.00;61272.81;5174699;28;20054;-72
2022/10/04 01:33:38;;;;;;;22.97;9.10;;;;;;;-150.27;100.00;61272.81;5171501;28;20043;-73
2022/10/04 01:36:09;;;;;;;10.83;7.53;;;;;;;-150.27;100.00;61272.81;5165742;28;20069;-73
2022/10/04 01:38:41;;;;;;;13.77;7.10;;;;;;;-150.27;100.00;61272.81;5170690;28;20487;-72
2022/10/04 01:41:16;;;;;;;15.13;8.00;;;;;;;-150.27;100.00;61272.81;5172188;28;20023;-74
2022/10/04 01:43:51;;;;;;;14.10;7.40;;;;;;;-150.27;100.00;61272.81;5171309;28;20118;-73
2022/10/04 01:46:30;;;;;;;13.20;8.10;;;;;;;-150.27;100.00;61272.81;5171341;28;20640;-73
2022/10/04 01:49:08;;;;;;;17.47;7.87;;;;;;;-150.27;100.00;61272.81;5170635;28;20041;-74
2022/10/04 01:51:58;;;;;;;16.90;8.93;;;;;;;-150.27;100.00;61272.81;5169977;28;20039;-72
2022/10/04 01:54:37;;;;;;;10.30;7.00;;;;;;;-150.27;100.00;61272.81;5171405;28;20034;-74
2022/10/04 01:57:14;;;;;;;12.00;7.53;;;;;;;-150.27;100.00;61272.81;5171553;28;20593;-73
2022/10/04 02:00:09;;;;;;;15.87;8.53;;;;;;;-150.27;100.00;61272.81;5167780;28;20027;-73
2022/10/04 02:02:59;;;;;;;11.63;7.43;;;;;;;-150.27;100.00;61272.81;5162004;28;20426;-74
2022/10/04 02:05:47;;;;;;;13.50;8.67;;;;;;;-150.27;100.00;61272.81;5170164;28;20035;-73
2022/10/04 02:08:25;;;;;;;14.50;8.03;;;;;;;-150.27;100.00;61272.81;5170968;28;20057;-73
2022/10/04 02:10:58;;;;;;;14.70;8.13;;;;;;;-150.27;100.00;61272.81;5170710;28;20470;-73
2022/10/04 02:13:36;;;;;;;17.97;7.83;;;;;;;-150.27;100.00;61272.81;5170963;28;20109;-74
2022/10/04 02:16:10;;;;;;;11.47;7.83;;;;;;;-150.27;100.00;61272.81;5171144;28;20117;-74
2022/10/04 02:18:43;;;;;;;12.98;8.48;;;;;;;-150.27;100.00;61272.81;5170884;28;20126;-74
2022/10/04 02:21:16;;;;;;;13.50;8.27;;;;;;;-150.27;100.00;61272.81;5170703;28;20034;-74
2022/10/04 02:23:48;;;;;;;16.80;8.47;;;;;;;-150.27;100.00;61272.81;5171230;28;20117;-73
2022/10/04 02:26:20;;;;;;;14.53;7.93;;;;;;;-150.27;100.00;61272.81;5169910;28;20456;-74
2022/10/04 02:28:51;;;;;;;18.03;8.20;;;;;;;-150.27;100.00;61272.81;5170974;28;20501;-74
2022/10/04 02:34:17;;;;;;;13.73;7.87;;;;;;;-150.27;100.00;61272.81;5170329;28;20047;-74
2022/10/04 02:36:50;;;;;;;18.10;8.53;;;;;;;-150.27;100.00;61272.81;5169689;28;20117;-74
2022/10/04 02:39:25;;;;;;;15.30;9.37;;;;;;;-150.27;100.00;61272.81;5169428;28;20449;-74
2022/10/04 02:42:08;;;;;;;13.87;8.70;;;;;;;-150.27;100.00;61272.81;5171905;28;20039;-74
2022/10/04 02:44:43;;;;;;;14.90;8.87;;;;;;;-150.27;100.00;61272.81;5154511;28;20035;-74
2022/10/04 02:47:24;;;;;;;18.37;8.93;;;;;;;-150.27;100.00;61272.81;5162979;28;20126;-72
2022/10/04 02:50:04;;;;;;;12.17;8.10;;;;;;;-150.27;100.00;61272.81;5173872;28;20027;-73
2022/10/04 02:52:47;;;;;;;13.30;8.10;;;;;;;-150.27;100.00;61272.81;5174292;28;20042;-73
2022/10/04 02:55:23;;;;;;;14.10;8.37;;;;;;;-150.27;100.00;61272.81;5174408;28;20030;-73
2022/10/04 02:57:55;;;;;;;18.17;9.27;;;;;;;-150.27;100.00;61272.81;5173091;28;20407;-73
2022/10/04 03:00:29;;;;;;;15.43;10.17;;;;;;;-150.27;100.00;61272.81;5174041;28;20034;-72
2022/10/04 03:03:24;;;;;;;17.50;10.68;;;;;;;-150.27;100.00;61272.81;5174375;28;20027;-72
2022/10/04 03:05:58;;;;;;;20.55;10.05;;;;;;;-150.27;100.00;61272.81;5173818;28;20033;-71
2022/10/04 03:08:43;;;;;;;17.08;9.43;;;;;;;-150.27;100.00;61272.81;5173603;28;20030;-73
2022/10/04 03:11:15;;;;;;;;;;;;;;;-150.27;100.00;61272.81;5175227;28;20093;-74
2022/10/04 03:13:51;;;;;;;15.53;9.17;;;;;;;-150.27;100.00;61272.81;5172254;28;19930;-74
2022/10/04 03:16:24;;;;;;;14.10;9.10;;;;;;;-150.27;100.00;61272.81;5174023;28;20041;-74
2022/10/04 03:18:56;;;;;;;15.80;9.20;;;;;;;-150.27;100.00;61272.81;5173032;28;20027;-73
2022/10/04 03:21:31;;;;;;;20.63;10.70;;;;;;;-150.27;100.00;61272.81;5174067;28;20173;-74
2022/10/04 03:24:05;;;;;;;18.15;10.27;;;;;;;-150.27;100.00;61272.81;5175365;28;20042;-73
2022/10/04 03:26:46;;;;;;;19.08;10.10;;;;;;;-150.27;100.00;61272.81;5174410;28;20038;-73
2022/10/04 03:29:20;;;;;;;18.03;10.37;;;;;;;-150.27;100.00;61272.81;5174470;28;20521;-74
2022/10/04 03:31:57;;;;;;;16.65;9.23;;;;;;;-150.27;100.00;61272.81;5176099;28;20043;-73
2022/10/04 03:34:36;;;;;;;15.07;9.00;;;;;;;-150.27;100.00;61272.81;5174507;28;20019;-73
2022/10/04 03:37:14;;;;;;;16.73;9.03;;;;;;;-150.27;100.00;61272.81;5178540;28;20034;-73
2022/10/04 03:39:48;;;;;;;16.90;9.30;;;;;;;-150.27;100.00;61272.81;5166695;28;20030;-73
2022/10/04 03:42:23;;;;;;;13.73;8.40;;;;;;;-150.27;100.00;61272.81;5174037;28;20114;-74
2022/10/04 03:45:07;;;;;;;15.63;8.13;;;;;;;-150.27;100.00;61272.81;5156848;28;20382;-74
2022/10/04 03:47:42;;;;;;;19.17;10.93;;;;;;;-150.27;100.00;61272.81;5172213;28;20049;-74
2022/10/04 03:50:18;;;;;;;14.93;9.03;;;;;;;-150.27;100.00;61272.81;5173988;28;20752;-74
2022/10/04 03:52:55;;;;;;;12.67;8.70;;;;;;;-150.27;100.00;61272.81;5174209;28;20023;-74
2022/10/04 03:55:33;;;;;;;16.80;8.73;;;;;;;-150.27;100.00;61272.81;5171294;28;20031;-73
2022/10/04 03:58:08;;;;;;;15.47;9.70;;;;;;;-150.27;100.00;61272.81;5175100;28;20039;-74
2022/10/04 04:00:44;;;;;;;13.77;8.57;;;;;;;-150.27;100.00;61272.81;5174872;28;20039;-72
2022/10/04 04:03:19;;;;;;;13.77;8.83;;;;;;;-150.27;100.00;61272.81;5174274;28;20033;-73
2022/10/04 04:05:53;;;;;;;;;;;;;;;-150.27;100.00;61272.81;5167940;28;20041;-74
2022/10/04 04:08:25;;;;;;;11.80;8.83;;;;;;;-150.27;100.00;61272.81;5163391;28;19914;-73
2022/10/04 04:11:00;;;;;;;17.77;9.10;;;;;;;-150.27;100.00;61272.81;5174447;28;20037;-73
2022/10/04 04:13:57;;;;;;;20.33;9.30;;;;;;;-150.27;100.00;61272.81;5173959;28;20082;-73
2022/10/04 04:16:29;;;;;;;17.73;10.23;;;;;;;-150.27;100.00;61272.81;5173229;28;20473;-73
2022/10/04 04:19:02;;;;;;;16.00;9.37;;;;;;;-150.27;100.00;61272.81;5169777;28;20118;-73
2022/10/04 04:21:33;;;;;;;16.93;9.37;;;;;;;-150.27;100.00;61272.81;5169399;28;20027;-73
2022/10/04 04:24:28;;;;;;;23.00;10.37;;;;;;;-150.27;100.00;61272.81;5174846;28;20062;-72
2022/10/04 04:27:04;;;;;;;21.58;9.45;;;;;;;-150.27;100.00;61272.81;5174562;28;20846;-74
2022/10/04 04:29:48;;;;;;;15.53;8.43;;;;;;;-150.27;100.00;61272.81;5173847;28;20022;-73
2022/10/04 04:32:23;;;;;;;;;;;;;;;-150.27;100.00;61272.81;5172233;28;20113;-73
2022/10/04 04:35:05;;;;;;;14.57;8.87;;;;;;;-150.27;100.00;61272.81;5173019;28;19918;-72
2022/10/04 04:37:37;;;;;;;15.37;8.47;;;;;;;-150.27;100.00;61272.81;5173697;28;20045;-71
2022/10/04 04:40:20;;;;;;;17.47;9.07;;;;;;;-150.27;100.00;61272.81;5170897;28;20023;-74
2022/10/04 04:42:52;;;;;;;14.97;8.87;;;;;;;-150.27;100.00;61272.81;5164133;28;20034;-74
2022/10/04 04:45:28;;;;;;;19.13;8.67;;;;;;;-150.27;100.00;61272.81;5168866;28;20023;-72
2022/10/04 04:48:02;;;;;;;17.40;9.47;;;;;;;-150.27;100.00;61272.81;5173381;28;20107;-72
2022/10/04 04:50:38;;;;;;;15.38;8.52;;;;;;;-150.27;100.00;61272.81;5174520;28;20030;-72
2022/10/04 04:53:30;;;;;;;14.90;9.97;;;;;;;-150.27;100.00;61272.81;5175868;28;20497;-72
2022/10/04 04:56:04;;;;;;;16.70;9.57;;;;;;;-150.27;100.00;61272.81;5173430;28;20429;-71
2022/10/04 04:58:40;;;;;;;13.10;9.25;;;;;;;-150.27;100.00;61272.81;5171491;28;20436;-73
2022/10/04 05:01:22;;;;;;;15.90;8.63;;;;;;;-150.27;100.00;61272.81;5169107;28;20062;-73
2022/10/04 05:04:16;;;;;;;15.90;9.10;;;;;;;-150.27;100.00;61272.81;5169886;28;20585;-72
2022/10/04 05:07:02;;;;;;;16.27;8.13;;;;;;;-150.27;100.00;61272.81;5171510;28;20037;-73
2022/10/04 05:09:37;;;;;;;20.87;9.73;;;;;;;-150.27;100.00;61272.81;5174424;28;20035;-73
2022/10/04 05:12:19;;;;;;;24.00;10.20;;;;;;;-150.27;100.00;61272.81;5165734;28;20497;-73
2022/10/04 05:14:53;;;;;;;17.80;9.63;;;;;;;-150.27;100.00;61272.81;5171543;28;20039;-74
2022/10/04 05:17:32;;;;;;;17.67;8.52;;;;;;;-150.27;100.00;61272.81;5183199;28;20042;-72
2022/10/04 05:20:04;;;;;;;15.70;8.30;;;;;;;-150.27;100.00;61272.81;5180488;28;20058;-73
2022/10/04 05:22:37;;;;;;;16.97;9.10;;;;;;;-150.27;100.00;61272.81;5171938;28;20713;-73
2022/10/04 05:25:19;;;;;;;15.53;8.57;;;;;;;-150.27;100.00;61272.81;5166825;28;20516;-73
2022/10/04 05:27:52;;;;;;;14.50;7.67;;;;;;;-150.27;100.00;61272.81;5171750;28;20061;-73
2022/10/04 05:30:50;;;;;;;12.63;7.50;;;;;;;-150.27;100.00;61272.81;5171190;28;20031;-73
2022/10/04 05:33:35;;;;;;;13.13;7.00;;;;;;;-150.27;100.00;61272.81;5148965;28;20104;-72
2022/10/04 05:36:09;;;;;;;17.00;7.20;;;;;;;-150.27;100.00;61272.81;5193325;28;20031;-72
2022/10/04 05:39:02;;;;;;;12.00;6.80;;;;;;;-150.27;100.00;61272.81;5190530;28;20477;-73
2022/10/04 05:41:55;;;;;;;11.97;6.53;;;;;;;-150.27;100.00;61272.81;5191784;28;20018;-73
2022/10/04 05:44:30;;;;;;;10.20;6.43;;;;;;;-150.27;100.00;61272.81;5185615;28;20023;-72
2022/10/04 05:47:06;;;;;;;13.70;6.70;;;;;;;-150.27;100.00;61272.81;5180081;28;20027;-72
2022/10/04 05:49:47;;;;;;;12.77;6.00;;;;;;;-150.27;100.00;61272.81;5191572;28;20030;-73
2022/10/04 05:52:30;;;;;;;12.50;6.70;;;;;;;-150.27;100.00;61272.81;5173638;28;20034;-73
2022/10/04 05:55:16;;;;;;;11.27;6.50;;;;;;;-150.27;100.00;61272.81;5180482;28;20066;-72
2022/10/04 05:58:18;;;;;;;11.90;6.63;;;;;;;-150.27;100.00;61272.81;5152603;28;20039;-72
2022/10/04 06:01:32;;;;;;;13.80;6.57;;;;;;;-150.27;100.00;61272.81;5158522;28;20026;-73
2022/10/04 06:04:23;;;;;;;10.83;6.00;;;;;;;-150.27;100.00;61272.81;5166920;28;20077;-73
2022/10/04 06:06:59;;;;;;;18.10;6.60;;;;;;;-150.27;100.00;61272.81;5166401;28;20101;-73
2022/10/04 06:10:01;;;;;;;18.63;8.17;;;;;;;-150.27;100.00;61272.81;5170419;28;20031;-73
2022/10/04 06:12:45;;;;;;;15.30;6.73;;;;;;;-150.27;100.00;61272.81;5161369;28;20039;-73
2022/10/04 06:15:45;;;;;;;12.65;5.05;;;;;;;-150.27;100.00;61272.81;5170783;28;20035;-71
2022/10/04 06:18:33;;;;;;;14.30;6.67;;;;;;;-150.27;100.00;61272.81;5170824;28;20042;-73
2022/10/04 06:21:24;;;;;;;14.87;6.30;;;;;;;-150.27;100.00;61272.81;5172914;28;20037;-71
2022/10/04 06:23:55;;;;;;;15.43;5.67;;;;;;;-150.27;100.00;61272.81;5173948;28;20027;-72
2022/10/04 06:26:39;;;;;;;20.03;6.83;;;;;;;-150.27;100.00;61272.81;5174995;28;20430;-72
2022/10/04 06:29:14;;;;;;;12.20;5.97;;;;;;;-150.27;100.00;61272.81;5175700;28;20031;-72
2022/10/04 06:32:10;;;;;;;11.07;6.00;;;;;;;-150.27;100.00;61272.81;5175175;28;20030;-71
2022/10/04 06:34:48;;;;;;;13.00;5.87;;;;;;;-150.27;100.00;61272.81;5173790;28;20370;-73
2022/10/04 06:37:30;;;;;;;16.17;5.87;;;;;;;-150.27;100.00;61272.81;5172232;28;20030;-72
2022/10/04 06:40:33;;;;;;;11.43;5.90;;;;;;;-150.27;100.00;61272.81;5180385;28;20488;-71
2022/10/04 06:43:27;;;;;;;9.13;4.63;;;;;;;-150.27;100.00;61272.81;5167567;28;20042;-71
2022/10/04 06:46:14;;;;;;;9.30;5.10;;;;;;;-150.27;100.00;61272.81;5174802;28;20039;-72
2022/10/04 06:49:03;;;;;;;13.10;6.00;;;;;;;-150.27;100.00;61272.81;5189349;28;20134;-73
2022/10/04 06:52:08;;;;;;;13.57;5.60;;;;;;;-150.27;100.00;61272.81;5186536;28;20062;-72
2022/10/04 06:54:47;;;;;;;7.45;4.72;;;;;;;-150.27;100.00;61272.81;5176425;28;20490;-73
2022/10/04 06:57:35;;;;;;;13.57;6.00;;;;;;;-150.27;100.00;61272.81;5166207;28;20034;-73
2022/10/04 07:00:44;;;;;;;11.93;5.70;;;;;;;-150.27;100.00;61272.81;5166329;28;20543;-72
2022/10/04 07:03:23;;;;;;;13.63;5.33;;;;;;;-150.27;100.00;61272.81;5161881;28;20051;-72
2022/10/04 07:06:00;;;;;;;11.00;5.40;;;;;;;-150.27;100.00;61272.81;5165520;28;20042;-73
2022/10/04 07:08:49;;;;;;;14.47;6.37;;;;;;;-150.27;100.00;61272.81;5162704;28;20066;-73
2022/10/04 07:11:29;;;;;;;10.60;5.30;;;;;;;-150.27;100.00;61272.81;5163660;28;20062;-72
2022/10/04 07:14:10;;;;;;;10.93;5.10;;;;;;;-150.27;100.00;61272.81;5164061;28;20224;-75
2022/10/04 07:16:58;;;;;;;12.30;5.83;;;;;;;-150.27;100.00;61272.81;5165958;28;20075;-73
2022/10/04 07:19:35;;;;;;;11.70;6.10;;;;;;;-150.27;100.00;61272.81;5169634;28;20034;-73
2022/10/04 07:22:07;;;;;;;11.37;5.30;;;;;;;-150.27;100.00;61272.81;5163985;28;20059;-70
2022/10/04 07:24:50;;;;;;;13.40;5.77;;;;;;;-150.27;100.00;61272.81;5169366;28;20062;-71
2022/10/04 07:27:29;;;;;;;14.40;6.10;;;;;;;-150.27;100.00;61272.81;5165797;28;20027;-71
2022/10/04 07:30:08;;;;;;;12.03;5.63;;;;;;;-150.27;100.00;61272.81;5167023;28;20028;-71
2022/10/04 07:32:45;;;;;;;17.40;5.40;;;;;;;-150.27;100.00;61272.81;5167174;28;20027;-74
2022/10/04 07:35:49;;;;;;;10.77;5.20;;;;;;;-150.27;100.00;61272.81;5167852;28;20027;-71
2022/10/04 07:38:28;;;;;;;15.73;6.33;;;;;;;-150.27;100.00;61272.81;5184978;28;20064;-71
2022/10/04 07:41:22;;;;;;;17.00;6.13;;;;;;;-150.27;100.00;61272.81;5177213;28;20023;-70
2022/10/04 07:44:16;;;;;;;10.70;5.80;;;;;;;-150.27;100.00;61272.81;5173310;28;20030;-71
2022/10/04 07:46:57;;;;;;;14.53;6.93;;;;;;;-150.27;100.00;61272.81;5172839;28;20034;-72
2022/10/04 07:49:37;;;;;;;9.33;5.13;;;;;;;-150.27;100.00;61272.81;5170106;28;20490;-70
2022/10/04 07:52:33;;;;;;;10.10;5.83;;;;;;;-150.27;100.00;61272.81;5172210;28;20027;-71
2022/10/04 07:55:28;;;;;;;15.93;6.37;;;;;;;-150.27;100.00;61272.81;5171029;28;20031;-71
2022/10/04 07:58:24;;;;;;;24.17;6.13;;;;;;;-150.27;100.00;61272.81;5171094;28;20039;-69
2022/10/04 08:01:04;;;;;;;13.17;5.70;;;;;;;-150.27;100.00;61272.81;5173063;28;20034;-73
2022/10/04 08:03:56;;;;;;;13.30;5.47;;;;;;;-150.27;100.00;61272.81;5171878;28;20058;-71
2022/10/04 08:06:36;;;;;;;10.77;5.40;;;;;;;-150.27;100.00;61272.81;5170994;28;20570;-71
2022/10/04 08:09:29;;;;;;;11.17;5.13;;;;;;;-150.27;100.00;61272.81;5172528;28;20555;-70
2022/10/04 08:12:06;;;;;;;11.63;6.00;;;;;;;-150.27;100.00;61272.81;5171498;28;20070;-71
2022/10/04 08:14:55;;;;;;;9.47;4.43;;;;;;;-150.27;100.00;61272.81;5170740;28;20523;-71
2022/10/04 08:17:35;;;;;;;10.80;4.13;;;;;;;-150.27;100.00;61272.81;5170617;28;20438;-71
2022/10/04 08:20:45;;;;;;;12.97;5.67;;;;;;;-150.27;100.00;61272.81;5171518;28;20031;-70
2022/10/04 08:23:26;;;;;;;10.30;4.50;;;;;;;-150.27;100.00;61272.81;5170159;28;20081;-71
2022/10/04 08:26:20;;;;;;;9.70;4.18;;;;;;;-150.27;100.00;61272.81;5171307;28;20035;-71
2022/10/04 08:29:43;;;;;;;11.10;4.43;;;;;;;-150.27;100.00;61272.81;5171895;28;20034;-71
2022/10/04 08:32:49;;;;;;;10.23;3.92;;;;;;;-150.27;100.00;61272.81;5175446;28;20197;-71
2022/10/04 08:35:30;;;;;;;8.50;3.70;;;;;;;-150.27;100.00;61272.81;5163856;28;20054;-72
2022/10/04 08:38:20;;;;;;;9.90;4.55;;;;;;;-150.27;100.00;61272.81;5171180;28;20030;-71
2022/10/04 08:41:06;;;;;;;7.78;3.90;;;;;;;-150.27;100.00;61272.81;5171233;28;20057;-70
2022/10/04 08:43:50;;;;;;;20.73;5.20;;;;;;;-150.27;100.00;61272.81;5169322;28;20646;-70
2022/10/04 08:46:39;;;;;;;10.35;4.95;;;;;;;-150.27;100.00;61272.81;5162494;28;20031;-71
2022/10/04 08:49:48;;;;;;;11.88;5.60;;;;;;;-150.27;100.00;61272.81;5163115;28;20066;-72
2022/10/04 08:52:40;;;;;;;14.35;4.75;;;;;;;-150.27;100.00;61272.81;5171397;28;20382;-72
2022/10/04 08:55:23;;;;;;;7.07;4.25;;;;;;;-150.27;100.00;61272.81;5175059;28;20022;-72
2022/10/04 08:58:15;;;;;;;10.87;4.77;;;;;;;-150.27;100.00;61272.81;5167621;28;20027;-71
2022/10/04 09:00:55;;;;;;;7.95;4.10;;;;;;;-150.27;100.00;61272.81;5171786;28;20027;-71
2022/10/04 09:03:42;;;;;;;11.50;5.13;;;;;;;-150.27;100.00;61272.81;5170029;28;20385;-71
2022/10/04 09:06:36;;;;;;;8.48;4.45;;;;;;;-150.27;100.00;61272.81;5171770;28;20414;-72
2022/10/04 09:10:10;;;;;;;7.65;4.15;;;;;;;-150.27;100.00;61272.81;5173407;28;20045;-71
2022/10/04 09:13:00;;;;;;;9.93;4.63;;;;;;;-150.27;100.00;61272.81;5083155;28;20046;-72
2022/10/04 09:15:52;;;;;;;9.77;4.25;;;;;;;-150.27;100.00;61272.81;5177764;28;20053;-72
2022/10/04 09:18:46;;;;;;;8.38;4.40;;;;;;;-150.27;100.00;61272.81;5175616;28;20037;-70
2022/10/04 09:21:26;;;;;;;9.23;5.07;;;;;;;-150.27;100.00;61272.81;5170558;28;20057;-72
2022/10/04 09:24:25;;;;;;;10.00;5.05;;;;;;;-150.27;100.00;61272.81;5171696;28;20023;-71
2022/10/04 09:27:12;;;;;;;8.38;4.82;;;;;;;-150.27;100.00;61272.81;5169220;28;20027;-71
2022/10/04 09:30:13;;;;;;;11.50;5.20;;;;;;;-150.27;100.00;61272.81;5170387;28;20596;-72
2022/10/04 09:33:25;;;;;;;7.57;3.72;;;;;;;-150.27;100.00;61272.81;5171081;28;20058;-75
2022/10/04 09:36:22;;;;;;;7.93;3.88;;;;;;;-150.27;100.00;61272.81;5170032;28;20061;-72
2022/10/04 09:39:21;;;;;;;9.57;4.07;;;;;;;-150.27;100.00;61272.81;5168083;28;20042;-72
2022/10/04 09:42:17;;;;;;;11.43;3.90;;;;;;;-150.27;100.00;61272.81;5180088;28;20040;-72
2022/10/04 09:45:20;;;;;;;10.13;3.90;;;;;;;-150.27;100.00;61272.81;5168578;28;20030;-72
2022/10/04 09:48:24;;;;;;;10.65;3.95;;;;;;;-150.27;100.00;61272.81;5170277;28;20448;-72
2022/10/04 09:51:23;;;;;;;6.47;3.10;;;;;;;-150.27;100.00;61272.81;5170705;28;20483;-72
2022/10/04 09:54:08;;;;;;;7.38;3.42;;;;;;;-150.27;100.00;61272.81;5171474;28;20481;-72
2022/10/04 09:57:07;;;;;;;11.95;3.72;;;;;;;-150.27;100.00;61272.81;5168489;28;20112;-74
2022/10/04 10:00:04;;;;;;;9.55;4.05;;;;;;;-150.27;100.00;61272.81;5157356;28;20462;-72
2022/10/04 10:03:01;;;;;;;13.07;3.40;;;;;;;-150.27;100.00;61272.81;5170481;28;20442;-70
2022/10/04 10:05:47;;;;;;;7.93;3.90;;;;;;;-150.27;100.00;61272.81;5169261;28;20645;-71
2022/10/04 10:08:35;;;;;;;8.40;4.10;;;;;;;-150.27;100.00;61272.81;5170878;28;20045;-73
2022/10/04 10:14:54;;;;;;;7.65;3.20;;;;;;;-150.27;100.00;61272.81;5162583;28;20145;-71
2022/10/04 10:17:38;;;;;;;8.60;3.58;;;;;;;-150.27;100.00;61272.81;5171668;28;20049;-72
2022/10/04 10:20:22;;;;;;;14.13;6.75;;;;;;;-150.27;100.00;61272.81;5183243;28;20022;-72
2022/10/04 10:23:02;;;;;;;9.95;6.22;;;;;;;-150.27;100.00;61272.81;5177481;28;20110;-71
2022/10/04 10:26:11;;;;;;;8.20;3.30;;;;;;;-150.27;100.00;61272.81;5186688;28;20027;-73
2022/10/04 10:29:19;;;;;;;13.95;4.95;;;;;;;-150.27;100.00;61272.81;5185406;28;20062;-70
2022/10/04 10:32:17;;;;;;;9.15;4.38;;;;;;;-150.27;100.00;61272.81;5160261;28;20113;-71
2022/10/04 10:35:15;;;;;;;9.50;3.47;;;;;;;-150.27;100.00;61272.81;5186869;28;20497;-72
2022/10/04 10:38:20;;;;;;;8.95;4.05;;;;;;;-150.27;100.00;61272.81;5173122;28;20074;-71
2022/10/04 10:41:14;;;;;;;10.73;3.30;;;;;;;-150.27;100.00;61272.81;5171419;28;20385;-71
2022/10/04 10:44:07;;;;;;;9.38;3.65;;;;;;;-150.27;100.00;61272.81;5181622;28;20046;-73
2022/10/04 10:46:51;;;;;;;6.67;3.43;;;;;;;-150.27;100.00;61272.81;5170862;28;20023;-71
2022/10/04 10:49:47;;;;;;;6.32;3.10;;;;;;;-150.27;100.00;61272.81;5168822;28;20431;-71
2022/10/04 10:52:30;;;;;;;11.18;3.45;;;;;;;-150.27;100.00;61272.81;5169785;28;20565;-72
2022/10/04 10:55:25;;;;;;;6.15;2.92;;;;;;;-150.27;100.00;61272.81;5166164;28;20050;-69
2022/10/04 10:58:17;;;;;;;9.85;3.35;;;;;;;-150.27;100.00;61272.81;5180236;28;20553;-73
2022/10/04 11:01:23;;;;;;;8.95;4.07;;;;;;;-150.27;100.00;61272.81;5174013;28;20023;-69
2022/10/04 11:04:22;;;;;;;7.57;3.63;;;;;;;-150.27;100.00;61272.81;5165064;28;20442;-70
2022/10/04 11:07:16;;;;;;;8.60;3.60;;;;;;;-150.27;100.00;61272.81;5187110;28;20039;-70
2022/10/04 11:10:16;;;;;;;7.80;3.95;;;;;;;-150.27;100.00;61272.81;5185801;28;20470;-68
2022/10/04 11:13:20;;;;;;;8.20;4.30;;;;;;;-150.27;100.00;61272.81;5164599;28;20062;-71
2022/10/04 11:16:15;;;;;;;13.05;7.57;;;;;;;-150.27;100.00;61272.81;5161060;28;20026;-71
2022/10/04 11:19:05;;;;;;;8.73;3.63;;;;;;;-150.27;100.00;61272.81;5185880;28;20039;-70
2022/10/04 11:22:14;;;;;;;9.05;3.95;;;;;;;-150.27;100.00;61272.81;5164539;28;20034;-68
2022/10/04 11:25:03;;;;;;;9.55;3.83;;;;;;;-150.27;100.00;61272.81;5169735;28;20026;-68
2022/10/04 11:28:01;;;;;;;6.90;2.92;;;;;;;-150.27;100.00;61272.81;5171513;28;20059;-69
2022/10/04 11:31:11;;;;;;;10.38;3.10;;;;;;;-150.27;100.00;61272.81;5166914;28;20094;-69
2022/10/04 11:34:23;;;;;;;7.47;2.92;;;;;;;-150.27;100.00;61272.81;5145362;28;20098;-70
2022/10/04 11:37:22;;;;;;;8.18;2.90;;;;;;;-150.27;100.00;61272.81;5170119;28;20522;-69
2022/10/04 11:40:01;;;;;;;7.78;3.30;;;;;;;-150.27;100.00;61272.81;5165139;28;20078;-69
2022/10/04 11:42:59;;;;;;;6.50;3.13;;;;;;;-150.27;100.00;61272.81;5170128;28;20031;-69
2022/10/04 11:45:35;;;;;;;9.65;3.30;;;;;;;-150.27;100.00;61272.81;5161598;28;20030;-69
2022/10/04 11:48:52;;;;;;;7.93;3.28;;;;;;;-150.27;100.00;61272.81;5171152;28;20055;-69
2022/10/04 11:51:49;;;;;;;12.55;3.70;;;;;;;-150.27;100.00;61272.81;5168663;28;20031;-70
2022/10/04 11:54:44;;;;;;;9.52;3.80;;;;;;;-150.27;100.00;61272.81;5183398;28;20175;-69
2022/10/04 11:58:14;;;;;;;9.68;3.72;;;;;;;-150.27;100.00;61272.81;5172006;28;20038;-73
2022/10/04 12:01:10;;;;;;;8.68;3.00;;;;;;;-150.27;100.00;61272.81;5151959;28;20142;-69
2022/10/04 12:04:12;;;;;;;6.82;2.35;;;;;;;-150.27;100.00;61272.81;5164398;28;20059;-71
2022/10/04 12:07:25;;;;;;;7.75;2.90;;;;;;;-150.27;100.00;61272.81;5172309;28;20379;-71
2022/10/04 12:10:34;;;;;;;6.05;2.60;;;;;;;-150.27;100.00;61272.81;5168293;28;20035;-70
2022/10/04 12:13:49;;;;;;;7.85;3.05;;;;;;;-150.27;100.00;61272.81;5172635;28;20134;-71
2022/10/04 12:16:30;;;;;;;5.93;2.20;;;;;;;-150.27;100.00;61272.81;5168880;28;20129;-70
2022/10/04 12:19:32;;;;;;;9.23;2.88;;;;;;;-150.27;100.00;61272.81;5170110;28;20097;-71
2022/10/04 12:22:28;;;;;;;6.25;2.35;;;;;;;-150.27;100.00;61272.81;5172034;28;20035;-71
2022/10/04 12:25:18;;;;;;;7.95;2.35;;;;;;;-150.27;100.00;61272.81;5170949;28;20030;-71
2022/10/04 12:27:58;;;;;;;5.63;2.38;;;;;;;-150.27;100.00;61272.81;5170979;28;20058;-71
2022/10/04 12:30:39;;;;;;;8.93;2.97;;;;;;;-150.27;100.00;61272.81;5169775;28;20041;-72
2022/10/04 12:33:23;;;;;;;5.45;2.53;;;;;;;-150.27;100.00;61272.81;5169779;28;20072;-71
2022/10/04 12:36:04;;;;;;;6.50;2.65;;;;;;;-150.27;100.00;61272.81;5166319;28;20529;-71